createdAt,value
2022-10-25T00:02:06.001Z,15.80
2022-10-25T00:04:35.228Z,15.85
2022-10-25T00:07:04.304Z,15.81
2022-10-25T00:09:31.121Z,15.91
2022-10-25T00:11:57.997Z,15.84
2022-10-25T00:14:27.376Z,15.93
2022-10-25T00:16:58.823Z,15.71
2022-10-25T00:19:26.018Z,15.81
2022-10-25T00:21:52.884Z,15.81
2022-10-25T00:24:21.822Z,15.83
2022-10-25T00:26:48.597Z,15.75
2022-10-25T00:29:20.067Z,15.89
2022-10-25T00:31:49.468Z,15.96
2022-10-25T00:34:16.283Z,15.87
2022-10-25T00:36:43.103Z,16.02
2022-10-25T00:39:12.525Z,16.09
2022-10-25T00:41:39.330Z,16.03
2022-10-25T00:44:36.938Z,15.81
2022-10-25T00:47:32.541Z,15.51
2022-10-25T00:50:17.298Z,15.67
2022-10-25T00:52:47.724Z,15.83
2022-10-25T00:55:17.839Z,15.85
2022-10-25T00:58:06.144Z,15.82
2022-10-25T01:00:36.072Z,15.75
2022-10-25T01:03:04.094Z,15.80
2022-10-25T01:05:34.781Z,15.55
2022-10-25T01:08:04.708Z,15.71
2022-10-25T01:10:32.383Z,15.77
2022-10-25T01:13:04.416Z,15.88
2022-10-25T01:16:10.174Z,15.98
2022-10-25T01:19:09.312Z,15.67
2022-10-25T01:22:16.220Z,15.68
2022-10-25T01:25:08.977Z,15.82
2022-10-25T01:28:14.966Z,15.55
2022-10-25T01:30:52.765Z,15.51
2022-10-25T01:33:34.875Z,15.54
2022-10-25T01:36:18.524Z,15.58
2022-10-25T01:39:09.333Z,15.83
2022-10-25T01:41:49.775Z,15.63
2022-10-25T01:44:29.073Z,15.57
2022-10-25T01:47:06.985Z,15.73
2022-10-25T01:49:47.445Z,15.82
2022-10-25T01:52:19.702Z,15.61
2022-10-25T01:54:46.517Z,15.52
2022-10-25T01:57:28.359Z,15.66
2022-10-25T02:00:15.973Z,15.59
2022-10-25T02:03:06.536Z,15.82
2022-10-25T02:05:53.146Z,15.60
2022-10-25T02:08:37.007Z,15.67
2022-10-25T02:11:31.896Z,15.73
2022-10-25T02:14:34.499Z,15.86
2022-10-25T02:17:10.324Z,15.68
2022-10-25T02:19:46.056Z,15.67
2022-10-25T02:22:15.809Z,15.53
2022-10-25T02:24:47.358Z,15.54
2022-10-25T02:27:14.902Z,15.62
2022-10-25T02:29:42.953Z,15.81
2022-10-25T02:32:11.989Z,15.85
2022-10-25T02:34:43.947Z,15.54
2022-10-25T02:37:14.309Z,15.73
2022-10-25T02:39:41.279Z,15.73
2022-10-25T02:42:12.587Z,15.55
2022-10-25T02:44:41.859Z,15.63
2022-10-25T02:47:11.976Z,15.88
2022-10-25T02:49:41.508Z,15.85
2022-10-25T02:52:08.411Z,15.77
2022-10-25T02:54:37.554Z,16.05
2022-10-25T02:57:06.644Z,16.09
2022-10-25T02:59:38.173Z,16.13
2022-10-25T03:02:10.701Z,16.33
2022-10-25T03:04:37.552Z,16.43
2022-10-25T03:07:04.436Z,16.58
2022-10-25T03:09:31.280Z,16.27
2022-10-25T03:11:58.295Z,16.40
2022-10-25T03:14:25.652Z,16.46
2022-10-25T03:16:52.582Z,16.08
2022-10-25T03:19:24.254Z,16.31
2022-10-25T03:21:53.560Z,16.23
2022-10-25T03:24:20.371Z,16.12
2022-10-25T03:26:47.279Z,15.98
2022-10-25T03:29:16.711Z,16.03
2022-10-25T03:31:46.658Z,16.20
2022-10-25T03:34:13.493Z,16.30
2022-10-25T03:36:40.313Z,16.23
2022-10-25T03:39:09.810Z,16.40
2022-10-25T03:41:36.667Z,16.22
2022-10-25T03:44:03.809Z,16.27
2022-10-25T03:46:33.819Z,16.40
2022-10-25T03:49:00.866Z,16.53
2022-10-25T03:51:32.774Z,16.48
2022-10-25T03:54:02.686Z,16.47
2022-10-25T03:56:32.615Z,16.29
2022-10-25T03:58:59.528Z,16.35
2022-10-25T04:01:26.396Z,16.19
2022-10-25T04:03:57.957Z,16.37
2022-10-25T04:06:25.051Z,16.57
2022-10-25T04:08:51.916Z,16.66
2022-10-25T04:11:18.789Z,16.40
2022-10-25T04:13:45.644Z,16.44
2022-10-25T04:16:19.125Z,16.39
2022-10-25T04:18:46.338Z,16.30
2022-10-25T04:21:13.192Z,16.33
2022-10-25T04:23:42.241Z,16.05
2022-10-25T04:26:09.064Z,16.24
2022-10-25T04:28:35.977Z,16.61
2022-10-25T04:31:03.628Z,16.58
2022-10-25T04:33:31.767Z,16.80
2022-10-25T04:35:59.203Z,16.73
2022-10-25T04:38:26.183Z,16.68
2022-10-25T04:40:57.675Z,16.46
2022-10-25T04:43:28.482Z,16.27
2022-10-25T04:46:01.405Z,16.48
2022-10-25T04:48:28.624Z,16.39
2022-10-25T04:50:59.063Z,16.50
2022-10-25T04:53:28.520Z,16.38
2022-10-25T04:56:00.654Z,16.38
2022-10-25T04:58:31.274Z,16.05
2022-10-25T05:01:11.378Z,16.31
2022-10-25T05:03:38.690Z,16.39
2022-10-25T05:06:13.349Z,16.18
2022-10-25T05:08:42.516Z,16.17
2022-10-25T05:11:12.991Z,16.31
2022-10-25T05:13:43.775Z,16.11
2022-10-25T05:16:22.692Z,16.03
2022-10-25T05:18:55.262Z,15.98
2022-10-25T05:21:28.749Z,16.15
2022-10-25T05:24:01.410Z,16.19
2022-10-25T05:26:30.252Z,16.18
2022-10-25T05:28:59.831Z,16.08
2022-10-25T05:31:29.563Z,16.19
2022-10-25T05:33:59.714Z,16.05
2022-10-25T05:36:32.817Z,16.21
2022-10-25T05:39:03.431Z,16.38
2022-10-25T05:41:33.192Z,16.20
2022-10-25T05:44:06.033Z,16.05
2022-10-25T05:46:35.235Z,16.22
2022-10-25T05:49:02.280Z,16.33
2022-10-25T05:51:36.497Z,16.40
2022-10-25T05:54:17.460Z,16.36
2022-10-25T05:56:44.621Z,16.28
2022-10-25T05:59:14.502Z,16.30
2022-10-25T06:01:48.716Z,16.02
2022-10-25T06:04:20.606Z,16.06
2022-10-25T06:06:52.243Z,16.08
2022-10-25T06:09:19.182Z,16.20
2022-10-25T06:11:46.050Z,16.42
2022-10-25T06:14:12.977Z,16.16
2022-10-25T06:16:40.131Z,16.27
2022-10-25T06:19:12.253Z,16.29
2022-10-25T06:21:41.193Z,16.26
2022-10-25T06:24:09.600Z,16.19
2022-10-25T06:26:36.436Z,16.28
2022-10-25T06:29:07.347Z,16.32
2022-10-25T06:31:34.181Z,16.54
2022-10-25T06:34:02.318Z,16.52
2022-10-25T06:36:31.391Z,16.65
2022-10-25T06:39:03.581Z,16.87
2022-10-25T06:41:36.906Z,16.66
2022-10-25T06:44:06.481Z,16.64
2022-10-25T06:49:26.180Z,15.99
2022-10-25T06:51:53.236Z,16.20
2022-10-25T06:54:22.107Z,16.37
2022-10-25T06:56:50.086Z,16.03
2022-10-25T06:59:20.464Z,16.14
2022-10-25T07:01:48.143Z,16.08
2022-10-25T07:04:19.654Z,15.71
2022-10-25T07:06:51.539Z,15.87
2022-10-25T07:09:21.234Z,16.02
2022-10-25T07:11:50.606Z,15.90
2022-10-25T07:14:17.476Z,15.72
2022-10-25T07:16:48.912Z,15.64
2022-10-25T07:19:15.779Z,15.92
2022-10-25T07:21:42.828Z,16.15
2022-10-25T07:24:11.171Z,15.81
2022-10-25T07:26:38.042Z,15.98
2022-10-25T07:29:09.888Z,16.21
2022-10-25T07:31:43.155Z,15.93
2022-10-25T07:34:17.763Z,16.00
2022-10-25T07:36:45.016Z,16.20
2022-10-25T07:39:11.882Z,16.47
2022-10-25T07:41:41.707Z,16.49
2022-10-25T07:44:12.967Z,16.67
2022-10-25T07:46:43.147Z,16.50
2022-10-25T07:49:09.952Z,16.69
2022-10-25T07:51:36.746Z,16.64
2022-10-25T07:54:08.492Z,16.48
2022-10-25T07:56:35.309Z,16.37
2022-10-25T07:59:04.692Z,16.33
2022-10-25T08:01:31.605Z,16.76
2022-10-25T08:03:58.493Z,16.45
2022-10-25T08:06:27.866Z,16.72
2022-10-25T08:08:54.764Z,16.70
2022-10-25T08:11:21.683Z,16.67
2022-10-25T08:13:50.476Z,16.51
2022-10-25T08:16:18.234Z,16.80
2022-10-25T08:18:45.075Z,16.80
2022-10-25T08:21:14.300Z,16.74
2022-10-25T08:23:43.377Z,17.10
2022-10-25T08:26:12.413Z,17.13
2022-10-25T08:28:41.361Z,17.08
2022-10-25T08:31:08.526Z,17.10
2022-10-25T08:33:37.815Z,17.22
2022-10-25T08:36:04.823Z,17.34
2022-10-25T08:38:31.732Z,17.33
2022-10-25T08:41:22.273Z,17.44
2022-10-25T08:44:10.430Z,17.32
2022-10-25T08:46:54.502Z,17.42
2022-10-25T08:49:38.195Z,17.54
2022-10-25T08:52:36.146Z,17.57
2022-10-25T08:55:12.127Z,18.08
2022-10-25T08:57:47.069Z,18.16
2022-10-25T09:00:24.202Z,18.42
2022-10-25T09:03:02.210Z,18.36
2022-10-25T09:05:49.134Z,19.22
2022-10-25T09:08:21.879Z,20.31
2022-10-25T09:11:19.406Z,20.39
2022-10-25T09:14:08.087Z,19.59
2022-10-25T09:16:51.951Z,19.63
2022-10-25T09:19:39.293Z,20.44
2022-10-25T09:22:26.894Z,20.39
2022-10-25T09:25:04.350Z,21.70
2022-10-25T09:27:49.707Z,22.41
2022-10-25T09:30:19.385Z,23.25
2022-10-25T09:33:01.294Z,23.90
2022-10-25T09:35:48.880Z,23.81
2022-10-25T09:38:47.651Z,22.20
2022-10-25T09:41:37.064Z,21.01
2022-10-25T09:44:17.755Z,20.02
2022-10-25T09:47:36.382Z,20.68
2022-10-25T09:50:19.394Z,20.42
2022-10-25T09:55:40.910Z,20.54
2022-10-25T09:58:31.972Z,20.38
2022-10-25T10:01:13.758Z,21.79
2022-10-25T10:03:41.325Z,22.52
2022-10-25T10:06:19.981Z,23.11
2022-10-25T10:08:57.612Z,23.82
2022-10-25T10:11:27.767Z,24.50
2022-10-25T10:14:07.504Z,26.04
2022-10-25T10:16:50.394Z,26.52
2022-10-25T10:19:18.737Z,25.98
2022-10-25T10:21:50.895Z,25.64
2022-10-25T10:24:23.799Z,24.55
2022-10-25T10:27:06.388Z,25.79
2022-10-25T10:29:57.789Z,27.23
2022-10-25T10:35:27.570Z,27.37
2022-10-25T10:38:28.532Z,27.10
2022-10-25T10:41:30.969Z,26.73
2022-10-25T10:44:17.512Z,26.25
2022-10-25T10:46:46.351Z,25.34
2022-10-25T10:49:14.635Z,23.89
2022-10-25T10:51:45.315Z,22.82
2022-10-25T10:54:19.563Z,23.34
2022-10-25T10:57:01.729Z,26.21
2022-10-25T10:59:51.539Z,27.19
2022-10-25T11:02:39.479Z,27.17
2022-10-25T11:05:30.572Z,29.85
2022-10-25T11:08:09.259Z,29.24
2022-10-25T11:10:42.128Z,27.09
2022-10-25T11:13:28.157Z,24.62
2022-10-25T11:16:13.000Z,22.70
2022-10-25T11:19:18.912Z,22.42
2022-10-25T11:22:35.459Z,24.99
2022-10-25T11:25:19.696Z,27.87
2022-10-25T11:28:32.016Z,27.92
2022-10-25T11:31:13.763Z,28.94
2022-10-25T11:34:32.903Z,31.03
2022-10-25T11:37:34.840Z,31.72
2022-10-25T11:40:15.254Z,31.60
2022-10-25T11:43:17.731Z,30.49
2022-10-25T11:45:46.869Z,29.75
2022-10-25T11:48:28.815Z,31.47
2022-10-25T11:51:42.988Z,33.81
2022-10-25T11:54:42.101Z,33.34
2022-10-25T11:57:32.553Z,32.59
2022-10-25T12:00:13.536Z,33.85
2022-10-25T12:03:04.809Z,33.34
2022-10-25T12:06:12.178Z,33.06
2022-10-25T12:08:58.116Z,32.93
2022-10-25T12:11:31.178Z,34.05
2022-10-25T12:14:04.031Z,31.06
2022-10-25T12:16:32.269Z,29.18
2022-10-25T12:19:28.773Z,27.66
2022-10-25T12:22:03.151Z,28.63
2022-10-25T12:24:40.710Z,27.69
2022-10-25T12:27:11.937Z,26.97
2022-10-25T12:29:51.264Z,25.86
2022-10-25T12:32:25.468Z,25.84
2022-10-25T12:34:57.300Z,27.72
2022-10-25T12:37:31.068Z,30.37
2022-10-25T12:39:58.005Z,31.59
2022-10-25T12:42:49.167Z,29.29
2022-10-25T12:45:43.442Z,27.56
2022-10-25T12:48:39.832Z,27.10
2022-10-25T12:51:09.281Z,27.06
2022-10-25T12:54:04.771Z,28.78
2022-10-25T12:57:18.721Z,31.57
2022-10-25T13:00:13.392Z,31.32
2022-10-25T13:03:41.267Z,32.47
2022-10-25T13:06:38.949Z,30.78
2022-10-25T13:09:15.575Z,28.82
2022-10-25T13:12:03.508Z,27.30
2022-10-25T13:14:35.446Z,25.70
2022-10-25T13:17:20.199Z,28.15
2022-10-25T13:19:55.349Z,29.06
2022-10-25T13:22:39.850Z,29.74
2022-10-25T13:25:12.245Z,29.82
2022-10-25T13:28:00.788Z,28.33
2022-10-25T13:30:32.032Z,27.32
2022-10-25T13:33:27.697Z,28.31
2022-10-25T13:35:54.586Z,27.93
2022-10-25T13:38:23.832Z,29.06
2022-10-25T13:41:08.293Z,29.56
2022-10-25T13:43:36.751Z,29.52
2022-10-25T13:46:03.639Z,26.90
2022-10-25T13:48:34.057Z,24.87
2022-10-25T13:51:12.010Z,23.17
2022-10-25T13:53:43.508Z,22.78
2022-10-25T13:56:20.038Z,22.59
2022-10-25T13:58:55.451Z,22.20
2022-10-25T14:01:23.398Z,22.03
2022-10-25T14:04:05.934Z,22.08
2022-10-25T14:06:41.709Z,22.01
2022-10-25T14:09:39.912Z,21.78
2022-10-25T14:12:20.171Z,21.39
2022-10-25T14:14:59.056Z,21.12
2022-10-25T14:17:44.805Z,21.37
2022-10-25T14:20:32.488Z,23.15
2022-10-25T14:23:06.112Z,24.67
2022-10-25T14:25:42.150Z,25.13
2022-10-25T14:28:22.764Z,23.50
2022-10-25T14:30:57.523Z,23.02
2022-10-25T14:33:33.816Z,23.04
2022-10-25T14:36:07.372Z,23.26
2022-10-25T14:39:01.922Z,24.09
2022-10-25T14:41:33.339Z,24.51
2022-10-25T14:44:02.111Z,24.70
2022-10-25T14:46:34.687Z,24.88
2022-10-25T14:49:04.123Z,24.64
2022-10-25T14:51:41.515Z,24.80
2022-10-25T14:54:25.972Z,24.67
2022-10-25T14:57:06.342Z,24.07
2022-10-25T14:59:46.654Z,24.88
2022-10-25T15:02:27.379Z,24.23
2022-10-25T15:05:00.539Z,23.84
2022-10-25T15:07:55.880Z,22.62
2022-10-25T15:10:43.693Z,22.98
2022-10-25T15:13:42.197Z,22.70
2022-10-25T15:16:36.725Z,22.97
2022-10-25T15:19:04.829Z,23.42
2022-10-25T15:21:42.269Z,22.88
2022-10-25T15:24:13.718Z,22.37
2022-10-25T15:27:00.807Z,21.94
2022-10-25T15:29:43.111Z,21.56
2022-10-25T15:32:12.816Z,21.38
2022-10-25T15:34:47.492Z,21.14
2022-10-25T15:37:16.904Z,20.66
2022-10-25T15:39:45.849Z,20.56
2022-10-25T15:42:15.619Z,20.43
2022-10-25T15:44:42.907Z,20.16
2022-10-25T15:47:33.192Z,19.84
2022-10-25T15:50:03.432Z,19.81
2022-10-25T15:52:36.118Z,19.37
2022-10-25T15:55:05.709Z,19.04
2022-10-25T15:57:32.473Z,18.76
2022-10-25T15:59:59.261Z,18.83
2022-10-25T16:02:28.274Z,18.96
2022-10-25T16:04:55.206Z,18.70
2022-10-25T16:07:22.392Z,18.35
2022-10-25T16:09:49.247Z,18.53
2022-10-25T16:12:21.677Z,18.19
2022-10-25T16:14:52.006Z,18.12
2022-10-25T16:17:23.329Z,18.07
2022-10-25T16:19:52.609Z,18.20
2022-10-25T16:22:21.915Z,18.14
2022-10-25T16:24:50.949Z,18.22
2022-10-25T16:27:18.177Z,18.16
2022-10-25T16:29:46.979Z,18.16
2022-10-25T16:32:18.488Z,18.18
2022-10-25T16:34:46.099Z,18.16
2022-10-25T16:37:12.921Z,18.02
2022-10-25T16:39:39.819Z,18.02
2022-10-25T16:42:37.502Z,17.99
2022-10-25T16:45:20.887Z,17.80
2022-10-25T16:47:50.396Z,17.56
2022-10-25T16:50:23.632Z,17.63
2022-10-25T16:52:56.731Z,17.41
2022-10-25T16:55:23.892Z,17.67
2022-10-25T16:57:55.331Z,17.54
2022-10-25T17:00:22.414Z,17.61
2022-10-25T17:02:54.272Z,17.58
2022-10-25T17:05:25.352Z,17.50
2022-10-25T17:07:52.430Z,17.55
2022-10-25T17:10:20.809Z,17.65
2022-10-25T17:13:05.786Z,17.53
2022-10-25T17:15:32.965Z,17.65
2022-10-25T17:17:59.939Z,17.65
2022-10-25T17:20:27.135Z,17.67
2022-10-25T17:22:54.584Z,17.49
2022-10-25T17:25:21.444Z,17.44
2022-10-25T17:27:52.923Z,17.33
2022-10-25T17:30:20.747Z,17.36
2022-10-25T17:32:47.627Z,17.21
2022-10-25T17:35:17.094Z,17.21
2022-10-25T17:37:44.442Z,17.13
2022-10-25T17:40:13.731Z,17.01
2022-10-25T17:42:42.840Z,16.99
2022-10-25T17:45:10.326Z,16.92
2022-10-25T17:47:42.592Z,16.72
2022-10-25T17:50:11.227Z,16.46
2022-10-25T17:52:42.182Z,16.70
2022-10-25T17:55:11.214Z,16.78
2022-10-25T17:57:38.048Z,16.73
2022-10-25T18:00:06.116Z,16.66
2022-10-25T18:02:33.080Z,16.72
2022-10-25T18:05:21.188Z,16.81
2022-10-25T18:07:49.190Z,16.78
2022-10-25T18:10:18.917Z,16.77
2022-10-25T18:12:48.216Z,16.59
2022-10-25T18:15:15.740Z,16.58
2022-10-25T18:17:43.096Z,16.29
2022-10-25T18:20:10.377Z,16.36
2022-10-25T18:22:39.663Z,16.50
2022-10-25T18:25:07.772Z,16.50
2022-10-25T18:27:34.871Z,16.39
2022-10-25T18:30:02.384Z,16.44
2022-10-25T18:32:33.702Z,16.46
2022-10-25T18:35:03.336Z,16.53
2022-10-25T18:37:35.265Z,16.54
2022-10-25T18:40:04.783Z,16.46
2022-10-25T18:42:35.061Z,16.29
2022-10-25T18:45:05.496Z,16.31
2022-10-25T18:47:34.511Z,16.31
2022-10-25T18:50:01.559Z,16.21
2022-10-25T18:52:30.721Z,16.07
2022-10-25T18:54:57.654Z,15.92
2022-10-25T18:57:29.068Z,15.69
2022-10-25T18:59:58.931Z,15.65
2022-10-25T19:02:25.884Z,15.61
2022-10-25T19:04:53.002Z,15.45
2022-10-25T19:07:19.897Z,15.62
2022-10-25T19:09:46.737Z,15.42
2022-10-25T19:12:13.618Z,15.39
2022-10-25T19:14:42.715Z,15.32
2022-10-25T19:17:09.582Z,15.38
2022-10-25T19:19:38.952Z,15.58
2022-10-25T19:22:07.906Z,15.47
2022-10-25T19:24:35.594Z,15.56
2022-10-25T19:27:04.688Z,15.50
2022-10-25T19:29:33.600Z,15.37
2022-10-25T19:32:02.611Z,15.44
2022-10-25T19:34:29.408Z,15.44
2022-10-25T19:37:07.841Z,15.27
2022-10-25T19:39:38.638Z,15.39
2022-10-25T19:42:08.541Z,15.36
2022-10-25T19:44:35.401Z,15.22
2022-10-25T19:47:02.327Z,15.12
2022-10-25T19:49:31.881Z,15.27
2022-10-25T19:52:01.007Z,15.11
2022-10-25T19:54:32.677Z,15.16
2022-10-25T19:57:06.731Z,15.02
2022-10-25T19:59:35.360Z,15.11
2022-10-25T20:02:05.024Z,15.22
2022-10-25T20:04:31.989Z,15.14
2022-10-25T20:06:58.846Z,15.12
2022-10-25T20:09:31.862Z,14.96
2022-10-25T20:12:01.175Z,14.96
2022-10-25T20:14:30.748Z,14.99
2022-10-25T20:16:57.573Z,14.66
2022-10-25T20:19:24.503Z,14.57
2022-10-25T20:21:55.873Z,14.22
2022-10-25T20:24:22.713Z,14.11
2022-10-25T20:26:49.909Z,14.29
2022-10-25T20:29:23.324Z,14.41
2022-10-25T20:31:51.440Z,14.37
2022-10-25T20:34:19.943Z,14.44
2022-10-25T20:36:48.360Z,14.49
2022-10-25T20:39:15.494Z,14.51
2022-10-25T20:41:42.395Z,14.47
2022-10-25T20:44:14.817Z,14.48
2022-10-25T20:46:41.783Z,14.44
2022-10-25T20:49:08.622Z,14.32
2022-10-25T20:51:38.020Z,14.31
2022-10-25T20:54:09.506Z,14.37
2022-10-25T20:56:39.672Z,14.44
2022-10-25T20:59:09.839Z,14.51
2022-10-25T21:01:39.496Z,14.46
2022-10-25T21:04:06.398Z,14.41
2022-10-25T21:06:36.234Z,14.38
2022-10-25T21:09:03.222Z,14.27
2022-10-25T21:11:32.618Z,14.28
2022-10-25T21:14:04.286Z,14.27
2022-10-25T21:16:35.740Z,14.29
2022-10-25T21:19:04.085Z,14.30
2022-10-25T21:21:30.883Z,14.27
2022-10-25T21:23:57.883Z,14.28
2022-10-25T21:26:26.885Z,14.40
2022-10-25T21:28:55.964Z,14.44
2022-10-25T21:31:22.822Z,14.43
2022-10-25T21:33:51.372Z,14.41
2022-10-25T21:36:20.562Z,14.38
2022-10-25T21:38:47.676Z,14.34
2022-10-25T21:41:26.704Z,14.41
2022-10-25T21:43:57.398Z,14.43
2022-10-25T21:46:26.419Z,14.38
2022-10-25T21:48:55.918Z,14.27
2022-10-25T21:51:26.035Z,14.33
2022-10-25T21:53:56.106Z,14.30
2022-10-25T21:56:30.671Z,14.37
2022-10-25T21:59:01.988Z,14.42
2022-10-25T22:01:30.818Z,14.44
2022-10-25T22:03:58.174Z,14.41
2022-10-25T22:06:30.436Z,14.35
2022-10-25T22:09:02.476Z,14.28
2022-10-25T22:11:34.526Z,14.22
2022-10-25T22:14:05.207Z,14.10
2022-10-25T22:16:33.609Z,14.04
2022-10-25T22:19:10.547Z,13.98
2022-10-25T22:21:39.211Z,13.99
2022-10-25T22:24:08.421Z,13.88
2022-10-25T22:26:36.760Z,13.84
2022-10-25T22:29:04.743Z,13.87
2022-10-25T22:31:32.552Z,14.01
2022-10-25T22:34:05.664Z,13.87
2022-10-25T22:36:36.531Z,13.87
2022-10-25T22:39:06.678Z,13.74
2022-10-25T22:41:36.233Z,13.69
2022-10-25T22:44:03.342Z,13.78
2022-10-25T22:46:33.739Z,13.54
2022-10-25T22:49:06.570Z,13.46
2022-10-25T22:51:33.674Z,13.39
2022-10-25T22:54:05.316Z,13.38
2022-10-25T22:56:32.234Z,13.29
2022-10-25T22:59:02.452Z,13.30
2022-10-25T23:01:32.971Z,13.43
2022-10-25T23:04:04.091Z,13.41
2022-10-25T23:06:39.662Z,13.41
2022-10-25T23:09:10.223Z,13.42
2022-10-25T23:11:39.405Z,13.44
2022-10-25T23:14:07.429Z,13.62
2022-10-25T23:16:34.475Z,13.60
2022-10-25T23:19:02.400Z,13.58
2022-10-25T23:21:33.291Z,13.39
2022-10-25T23:24:00.705Z,13.42
2022-10-25T23:26:36.495Z,13.42
2022-10-25T23:29:03.847Z,13.35
2022-10-25T23:31:33.306Z,13.36
2022-10-25T23:34:03.152Z,13.30
2022-10-25T23:36:37.556Z,13.12
2022-10-25T23:39:08.196Z,13.27
2022-10-25T23:41:35.105Z,13.17
2022-10-25T23:44:02.057Z,13.02
2022-10-25T23:46:31.316Z,12.97
2022-10-25T23:49:00.753Z,12.99
2022-10-25T23:51:30.582Z,12.87
2022-10-25T23:54:00.373Z,12.92
2022-10-25T23:56:27.248Z,12.86
2022-10-25T23:58:58.590Z,12.74
